< < Back
Terminal Aerodrome Forecast


Current Version              Previous Versions:   1  2  3  4  5  6  7  8  9  

Terminal Aerodrome Forecast

810
FTUS44 KOHX 281730
TAFBNA
TAF
KBNA 281730Z 2818/2918 04003KT P6SM FEW040 SCT250
     FM290100 36006KT P6SM SKC=



Latest METAR

828
SAUS70 KWBC 282200 RRX
MTRBNA
METAR KBNA 282153Z 04009KT 10SM VCTS SCT065CB BKN095 BKN120 33/17 A2999
RMK AO2 LTG DSNT N AND W TSB48E50B53 SLP149 OCNL LTGICCG VC
NW TS VC NW MOV S T03280167


USA.gov is the U.S. government's official web portal to all federal, state and local government web resources and services.